TAF KGCN
KGCN 090520Z 0906/1006 21008G16KT P6SM OVC030 FM091400 21013G24KT P6SM FEW008 SCT015 OVC025 TEMPO 0914/0915 BKN008 FM091800 22020G33KT 6SM -SHRA SCT003 OVC008 WS020/22050KT FM100200 25013G24KT 2SM -SHSNRA SCT003 OVC008=
METAR KGCN
WC KGCN
WS KGCN
WV KGCN